Time;durP1;ratioP1;P1;durP2;ratioP2;P2;SDS_P1;SDS_P2;PMS_P1;PMS_P2;Temp;Humidity;BMP_temperature;BMP_pressure;BME280_temperature;BME280_humidity;BME280_pressure;Samples;Min_cycle;Max_cycle;Signal;HPM_P1;HPM_P2
2022/04/07 00:01:49;;;;;;;13.10;6.60;;;;;;;;;;5089786;28;20047;-73
2022/04/07 00:04:14;;;;;;;11.63;6.80;;;;;;;;;;5089464;28;20059;-70
2022/04/07 00:06:40;;;;;;;10.38;6.43;;;;;;;;;;5089763;28;20118;-72
2022/04/07 00:09:06;;;;;;;10.68;6.30;;;;;;;;;;5089691;28;20121;-72
2022/04/07 00:11:31;;;;;;;9.82;6.50;;;;;;;;;;5089517;28;20156;-72
2022/04/07 00:13:57;;;;;;;8.70;6.43;;;;;;;;;;5089245;28;20081;-72
2022/04/07 00:16:22;;;;;;;9.68;6.32;;;;;;;;;;5089415;28;20030;-71
2022/04/07 00:18:47;;;;;;;9.65;6.50;;;;;;;;;;5089816;28;20443;-73
2022/04/07 00:21:20;;;;;;;11.27;6.00;;;;;;;;;;5089783;28;20215;-73
2022/04/07 00:23:48;;;;;;;9.57;6.45;;;;;;;;;;5089045;28;20456;-71
2022/04/07 00:26:14;;;;;;;12.63;6.93;;;;;;;;;;5092354;28;20113;-74
2022/04/07 00:28:39;;;;;;;11.32;7.00;;;;;;;;;;5093036;28;20103;-72
2022/04/07 00:31:04;;;;;;;9.60;6.78;;;;;;;;;;5092881;28;20012;-73
2022/04/07 00:33:30;;;;;;;9.13;6.22;;;;;;;;;;5092608;28;20546;-72
2022/04/07 00:35:55;;;;;;;9.68;6.95;;;;;;;;;;5093004;28;20073;-73
2022/04/07 00:38:21;;;;;;;9.90;6.63;;;;;;;;;;5092628;28;20032;-72
2022/04/07 00:40:47;;;;;;;9.55;6.45;;;;;;;;;;5092687;28;20410;-71
2022/04/07 00:43:28;;;;;;;10.65;6.38;;;;;;;;;;5092679;28;20089;-71
2022/04/07 00:45:53;;;;;;;;;;;;;;;;;;5093210;28;20043;-73
2022/04/07 00:48:18;;;;;;;9.27;5.82;;;;;;;;;;5092589;28;20369;-71
2022/04/07 00:50:44;;;;;;;9.27;6.07;;;;;;;;;;5092340;28;20061;-73
2022/04/07 00:53:09;;;;;;;10.38;6.18;;;;;;;;;;5092062;28;20028;-72
2022/04/07 00:55:36;;;;;;;8.75;6.05;;;;;;;;;;5092803;28;20020;-72
2022/04/07 00:58:05;;;;;;;9.15;5.95;;;;;;;;;;5092593;28;20573;-74
2022/04/07 01:00:31;;;;;;;9.40;6.03;;;;;;;;;;5092326;28;20067;-72
2022/04/07 01:02:57;;;;;;;10.45;5.85;;;;;;;;;;5092671;28;20055;-72
2022/04/07 01:05:23;;;;;;;9.40;5.90;;;;;;;;;;5091821;28;20344;-72
2022/04/07 01:07:49;;;;;;;8.05;5.53;;;;;;;;;;5092164;28;20024;-72
2022/04/07 01:10:16;;;;;;;8.88;6.35;;;;;;;;;;5092138;28;20504;-72
2022/04/07 01:12:41;;;;;;;8.05;5.68;;;;;;;;;;5092247;28;20209;-71
2022/04/07 01:15:08;;;;;;;10.40;6.63;;;;;;;;;;5091893;28;20161;-71
2022/04/07 01:17:34;;;;;;;10.63;5.72;;;;;;;;;;5092110;28;20488;-73
2022/04/07 01:20:01;;;;;;;9.90;6.35;;;;;;;;;;5092010;28;20028;-73
2022/04/07 01:22:26;;;;;;;11.05;6.68;;;;;;;;;;5092241;28;20035;-73
2022/04/07 01:24:52;;;;;;;10.80;6.10;;;;;;;;;;5091556;28;20024;-72
2022/04/07 01:27:18;;;;;;;9.73;5.85;;;;;;;;;;5090326;28;20020;-72
2022/04/07 01:29:44;;;;;;;10.18;5.72;;;;;;;;;;5091630;28;20012;-72
2022/04/07 01:32:18;;;;;;;9.48;5.70;;;;;;;;;;5091952;28;20092;-71
2022/04/07 01:34:44;;;;;;;9.98;5.90;;;;;;;;;;5091771;28;20020;-71
2022/04/07 01:37:11;;;;;;;8.32;5.63;;;;;;;;;;5091796;28;20098;-72
2022/04/07 01:39:39;;;;;;;8.85;5.68;;;;;;;;;;5091462;28;20468;-72
2022/04/07 01:42:07;;;;;;;8.32;5.82;;;;;;;;;;5091687;28;20080;-72
2022/04/07 01:44:36;;;;;;;8.07;5.75;;;;;;;;;;5091304;28;20020;-73
2022/04/07 01:47:02;;;;;;;9.90;5.72;;;;;;;;;;5091444;28;20028;-73
2022/04/07 01:49:30;;;;;;;8.00;5.90;;;;;;;;;;5091543;28;20028;-73
2022/04/07 01:51:55;;;;;;;10.13;5.90;;;;;;;;;;5091173;28;20039;-73
2022/04/07 01:54:21;;;;;;;8.57;6.20;;;;;;;;;;5091095;28;20024;-74
2022/04/07 01:56:47;;;;;;;13.55;6.30;;;;;;;;;;5091483;28;20351;-73
2022/04/07 01:59:13;;;;;;;9.82;6.05;;;;;;;;;;5091279;28;20043;-73
2022/04/07 02:01:39;;;;;;;12.27;6.35;;;;;;;;;;5091216;28;20035;-72
2022/04/07 02:04:04;;;;;;;10.52;6.03;;;;;;;;;;5090657;28;20056;-72
2022/04/07 02:06:30;;;;;;;8.68;5.70;;;;;;;;;;5090952;28;20028;-71
2022/04/07 02:08:56;;;;;;;11.10;5.82;;;;;;;;;;5090981;28;20020;-72
2022/04/07 02:11:22;;;;;;;8.68;5.90;;;;;;;;;;5091028;28;20069;-72
2022/04/07 02:13:48;;;;;;;7.93;5.57;;;;;;;;;;5091032;28;20028;-72
2022/04/07 02:16:14;;;;;;;9.82;5.65;;;;;;;;;;5090932;28;20088;-71
2022/04/07 02:18:40;;;;;;;8.32;5.35;;;;;;;;;;5090916;28;20020;-72
2022/04/07 02:21:06;;;;;;;12.48;6.00;;;;;;;;;;5090826;28;20070;-72
2022/04/07 02:23:40;;;;;;;7.97;5.97;;;;;;;;;;5089204;28;20279;-71
2022/04/07 02:26:10;;;;;;;7.78;5.80;;;;;;;;;;5090776;28;20020;-76
2022/04/07 02:28:35;;;;;;;7.77;5.60;;;;;;;;;;5090893;28;20059;-73
2022/04/07 02:31:00;;;;;;;8.02;5.60;;;;;;;;;;5091055;28;20302;-74
2022/04/07 02:33:26;;;;;;;9.10;5.90;;;;;;;;;;5090906;28;20032;-74
2022/04/07 02:35:51;;;;;;;7.72;5.35;;;;;;;;;;5090586;28;20020;-74
2022/04/07 02:38:17;;;;;;;8.23;5.78;;;;;;;;;;5090408;28;20043;-71
2022/04/07 02:40:42;;;;;;;8.55;5.70;;;;;;;;;;5090565;28;20497;-72
2022/04/07 02:43:07;;;;;;;9.00;5.70;;;;;;;;;;5090403;28;20024;-75
2022/04/07 02:45:33;;;;;;;8.77;5.45;;;;;;;;;;5090217;28;20112;-74
2022/04/07 02:47:58;;;;;;;10.18;5.60;;;;;;;;;;5089867;28;20032;-74
2022/04/07 02:50:24;;;;;;;8.63;5.78;;;;;;;;;;5090776;28;20020;-73
2022/04/07 02:52:49;;;;;;;10.75;6.05;;;;;;;;;;5090280;28;20086;-74
2022/04/07 02:55:15;;;;;;;10.50;5.90;;;;;;;;;;5090614;28;20020;-72
2022/04/07 02:57:41;;;;;;;10.65;6.13;;;;;;;;;;5090318;28;20035;-74
2022/04/07 03:00:07;;;;;;;9.48;5.65;;;;;;;;;;5090094;28;20551;-73
2022/04/07 03:02:32;;;;;;;8.90;5.63;;;;;;;;;;5090139;28;20048;-72
2022/04/07 03:04:58;;;;;;;8.23;5.68;;;;;;;;;;5089841;28;20070;-72
2022/04/07 03:07:23;;;;;;;8.32;5.63;;;;;;;;;;5090148;28;20024;-72
2022/04/07 03:09:49;;;;;;;8.48;5.78;;;;;;;;;;5090155;28;20031;-71
2022/04/07 03:12:14;;;;;;;8.25;5.82;;;;;;;;;;5090483;28;20460;-73
2022/04/07 03:14:40;;;;;;;9.07;5.55;;;;;;;;;;5089881;28;20024;-72
2022/04/07 03:17:06;;;;;;;9.02;5.65;;;;;;;;;;5088634;28;20038;-72
2022/04/07 03:19:32;;;;;;;10.55;5.97;;;;;;;;;;5089769;28;20020;-72
2022/04/07 03:21:57;;;;;;;11.35;5.45;;;;;;;;;;5089895;28;20089;-72
2022/04/07 03:24:24;;;;;;;7.45;5.60;;;;;;;;;;5089793;28;20024;-71
2022/04/07 03:26:50;;;;;;;11.18;5.90;;;;;;;;;;5090193;28;20016;-73
2022/04/07 03:29:16;;;;;;;7.35;5.35;;;;;;;;;;5090052;28;20032;-74
2022/04/07 03:31:42;;;;;;;8.80;5.95;;;;;;;;;;5090204;28;20027;-71
2022/04/07 03:34:07;;;;;;;9.10;5.82;;;;;;;;;;5089900;28;20020;-72
2022/04/07 03:36:33;;;;;;;7.93;5.40;;;;;;;;;;5089851;28;20024;-73
2022/04/07 03:38:58;;;;;;;7.80;5.55;;;;;;;;;;5089707;28;20028;-73
2022/04/07 03:41:24;;;;;;;8.10;5.88;;;;;;;;;;5090018;28;20047;-74
2022/04/07 03:43:49;;;;;;;8.43;5.78;;;;;;;;;;5090069;28;20024;-74
2022/04/07 03:46:16;;;;;;;8.02;5.60;;;;;;;;;;5089663;28;20024;-72
2022/04/07 03:48:42;;;;;;;10.93;5.80;;;;;;;;;;5089838;28;20396;-73
2022/04/07 03:51:07;;;;;;;8.68;5.68;;;;;;;;;;5089700;28;20032;-75
2022/04/07 03:53:33;;;;;;;10.32;5.60;;;;;;;;;;5089408;28;20537;-73
2022/04/07 03:55:58;;;;;;;10.13;5.78;;;;;;;;;;5089419;28;20041;-70
2022/04/07 03:58:25;;;;;;;8.48;5.75;;;;;;;;;;5089985;28;20020;-74
2022/04/07 04:00:50;;;;;;;11.52;5.78;;;;;;;;;;5093611;28;20495;-73
2022/04/07 04:03:16;;;;;;;11.60;6.68;;;;;;;;;;5093568;28;20085;-73
2022/04/07 04:05:41;;;;;;;10.65;6.32;;;;;;;;;;5093260;28;20069;-72
2022/04/07 04:08:07;;;;;;;11.43;6.22;;;;;;;;;;5093486;28;20081;-72
2022/04/07 04:10:33;;;;;;;9.38;6.43;;;;;;;;;;5093341;28;20480;-73
2022/04/07 04:12:58;;;;;;;9.15;6.20;;;;;;;;;;5093220;28;20034;-73
2022/04/07 04:15:24;;;;;;;11.00;6.40;;;;;;;;;;5093179;28;20026;-73
2022/04/07 04:17:49;;;;;;;8.95;6.10;;;;;;;;;;5093314;28;20027;-72
2022/04/07 04:20:15;;;;;;;9.75;6.47;;;;;;;;;;5093235;28;20024;-73
2022/04/07 04:22:40;;;;;;;10.68;6.63;;;;;;;;;;5093136;28;20031;-73
2022/04/07 04:25:08;;;;;;;8.98;6.40;;;;;;;;;;5093106;28;20024;-72
2022/04/07 04:27:33;;;;;;;9.02;5.95;;;;;;;;;;5093238;28;20081;-72
2022/04/07 04:29:59;;;;;;;10.05;6.32;;;;;;;;;;5092990;28;20032;-73
2022/04/07 04:32:24;;;;;;;12.95;6.65;;;;;;;;;;5092937;28;20028;-73
2022/04/07 04:34:50;;;;;;;11.52;6.35;;;;;;;;;;5092683;28;20024;-74
2022/04/07 04:37:16;;;;;;;9.63;6.25;;;;;;;;;;5093126;28;20123;-73
2022/04/07 04:39:41;;;;;;;9.48;5.93;;;;;;;;;;5092752;28;20036;-71
2022/04/07 04:42:07;;;;;;;9.48;6.00;;;;;;;;;;5092828;28;20490;-73
2022/04/07 04:44:33;;;;;;;8.40;5.80;;;;;;;;;;5092891;28;20100;-71
2022/04/07 04:46:58;;;;;;;10.07;5.93;;;;;;;;;;5092696;28;20031;-71
2022/04/07 04:49:24;;;;;;;8.38;5.78;;;;;;;;;;5092470;28;20039;-71
2022/04/07 04:51:49;;;;;;;11.48;6.10;;;;;;;;;;5092416;28;20031;-73
2022/04/07 04:54:15;;;;;;;11.90;6.38;;;;;;;;;;5092345;28;20032;-72
2022/04/07 04:56:41;;;;;;;10.75;5.75;;;;;;;;;;5092365;28;20028;-73
2022/04/07 04:59:07;;;;;;;8.77;5.70;;;;;;;;;;5092474;28;20472;-71
2022/04/07 05:01:33;;;;;;;10.13;5.68;;;;;;;;;;5092557;28;20036;-70
2022/04/07 05:03:58;;;;;;;10.43;5.70;;;;;;;;;;5092155;28;20431;-72
2022/04/07 05:06:24;;;;;;;8.85;5.40;;;;;;;;;;5092102;28;20066;-73
2022/04/07 05:08:49;;;;;;;7.18;4.82;;;;;;;;;;5092079;28;20048;-74
2022/04/07 05:11:14;;;;;;;9.13;5.28;;;;;;;;;;5091465;28;20066;-73
2022/04/07 05:13:40;;;;;;;11.00;5.95;;;;;;;;;;5092271;28;20020;-73
2022/04/07 05:16:07;;;;;;;12.73;5.82;;;;;;;;;;5091924;28;20035;-74
2022/04/07 05:18:34;;;;;;;12.15;6.07;;;;;;;;;;5092159;28;20024;-73
2022/04/07 05:20:59;;;;;;;10.27;6.03;;;;;;;;;;5092078;28;20361;-72
2022/04/07 05:23:25;;;;;;;10.68;6.47;;;;;;;;;;5090439;28;20043;-72
2022/04/07 05:25:50;;;;;;;8.45;5.80;;;;;;;;;;5091805;28;20093;-72
2022/04/07 05:28:16;;;;;;;14.38;5.47;;;;;;;;;;5091774;28;20024;-75
2022/04/07 05:30:41;;;;;;;9.15;5.60;;;;;;;;;;5091732;28;20031;-71
2022/04/07 05:33:07;;;;;;;11.63;5.72;;;;;;;;;;5091741;28;20066;-73
2022/04/07 05:35:32;;;;;;;12.75;5.57;;;;;;;;;;5091559;28;20124;-72
2022/04/07 05:37:59;;;;;;;15.27;6.05;;;;;;;;;;5091627;28;20024;-72
2022/04/07 05:40:26;;;;;;;8.55;5.65;;;;;;;;;;5091574;28;20066;-75
2022/04/07 05:42:51;;;;;;;8.98;5.75;;;;;;;;;;5091518;28;20516;-74
2022/04/07 05:45:17;;;;;;;8.93;5.57;;;;;;;;;;5091267;28;20048;-72
2022/04/07 05:47:42;;;;;;;12.32;5.63;;;;;;;;;;5091295;28;20111;-73
2022/04/07 05:50:09;;;;;;;11.40;5.25;;;;;;;;;;5091366;28;20027;-74
2022/04/07 05:52:35;;;;;;;15.23;5.95;;;;;;;;;;5091311;28;20108;-73
2022/04/07 05:55:00;;;;;;;15.25;6.25;;;;;;;;;;5091670;28;20543;-72
2022/04/07 05:57:27;;;;;;;10.75;6.13;;;;;;;;;;5091425;28;20024;-72
2022/04/07 05:59:52;;;;;;;9.32;5.93;;;;;;;;;;5091149;28;20081;-72
2022/04/07 06:02:17;;;;;;;11.05;5.88;;;;;;;;;;5091107;28;20020;-72
2022/04/07 06:04:43;;;;;;;12.15;6.10;;;;;;;;;;5090844;28;20123;-72
2022/04/07 06:07:08;;;;;;;12.38;6.22;;;;;;;;;;5089410;28;20024;-73
2022/04/07 06:09:35;;;;;;;11.52;6.00;;;;;;;;;;5091012;28;20051;-72
2022/04/07 06:12:01;;;;;;;18.10;6.85;;;;;;;;;;5091239;28;20097;-73
2022/04/07 06:14:26;;;;;;;14.27;6.50;;;;;;;;;;5091124;28;20535;-76
2022/04/07 06:16:51;;;;;;;12.57;6.38;;;;;;;;;;5091265;28;20032;-72
2022/04/07 06:19:17;;;;;;;11.82;6.57;;;;;;;;;;5091241;28;20118;-75
2022/04/07 06:21:43;;;;;;;12.77;6.00;;;;;;;;;;5090380;28;20051;-72
2022/04/07 06:24:08;;;;;;;13.88;6.30;;;;;;;;;;5090169;28;20407;-73
2022/04/07 06:26:34;;;;;;;14.52;6.35;;;;;;;;;;5090658;28;20508;-71
2022/04/07 06:29:00;;;;;;;14.38;6.53;;;;;;;;;;5090942;28;20031;-71
2022/04/07 06:31:26;;;;;;;12.00;6.25;;;;;;;;;;5090678;28;20032;-72
2022/04/07 06:33:51;;;;;;;13.05;6.75;;;;;;;;;;5090886;28;20229;-73
2022/04/07 06:36:17;;;;;;;12.40;6.57;;;;;;;;;;5090532;28;20306;-74
2022/04/07 06:38:42;;;;;;;9.25;6.13;;;;;;;;;;5090296;28;20363;-73
2022/04/07 06:41:07;;;;;;;13.73;7.20;;;;;;;;;;5090597;28;20020;-71
2022/04/07 06:43:33;;;;;;;18.35;6.53;;;;;;;;;;5090377;28;20364;-71
2022/04/07 06:45:58;;;;;;;13.73;6.78;;;;;;;;;;5090274;28;20020;-73
2022/04/07 06:48:24;;;;;;;14.68;6.40;;;;;;;;;;5090518;28;20488;-74
2022/04/07 06:50:49;;;;;;;11.45;6.50;;;;;;;;;;5090437;28;20464;-73
2022/04/07 06:53:14;;;;;;;12.98;6.65;;;;;;;;;;5090263;28;20099;-73
2022/04/07 06:55:40;;;;;;;13.10;6.75;;;;;;;;;;5089988;28;20017;-74
2022/04/07 06:58:10;;;;;;;16.13;7.40;;;;;;;;;;5090225;28;20464;-73
2022/04/07 07:00:44;;;;;;;11.45;6.38;;;;;;;;;;5090164;28;20024;-74
2022/04/07 07:03:11;;;;;;;10.00;6.30;;;;;;;;;;5090262;28;20025;-73
2022/04/07 07:05:37;;;;;;;14.35;6.13;;;;;;;;;;5090303;28;20124;-73
2022/04/07 07:08:13;;;;;;;16.35;6.18;;;;;;;;;;5090357;28;20107;-72
2022/04/07 07:10:40;;;;;;;14.07;6.35;;;;;;;;;;5090338;28;20020;-74
2022/04/07 07:13:06;;;;;;;11.60;6.00;;;;;;;;;;5090112;28;20034;-72
2022/04/07 07:15:31;;;;;;;11.63;5.70;;;;;;;;;;5089869;28;20102;-71
2022/04/07 07:17:56;;;;;;;11.00;5.40;;;;;;;;;;5089673;28;20035;-74
2022/04/07 07:20:22;;;;;;;10.85;5.68;;;;;;;;;;5090217;28;20024;-75
2022/04/07 07:22:47;;;;;;;13.63;5.13;;;;;;;;;;5090021;28;20483;-73
2022/04/07 07:25:13;;;;;;;11.88;5.60;;;;;;;;;;5089989;28;20099;-74
2022/04/07 07:27:46;;;;;;;10.07;5.15;;;;;;;;;;5089570;28;20085;-74
2022/04/07 07:30:15;;;;;;;9.88;5.45;;;;;;;;;;5090416;28;20088;-73
2022/04/07 07:32:42;;;;;;;11.32;5.25;;;;;;;;;;5090105;28;20016;-74
2022/04/07 07:35:09;;;;;;;8.57;4.88;;;;;;;;;;5093021;28;20027;-72
2022/04/07 07:37:36;;;;;;;22.35;6.43;;;;;;;;;;5093700;28;20024;-73
2022/04/07 07:40:08;;;;;;;14.65;5.60;;;;;;;;;;5093864;28;20138;-73
2022/04/07 07:42:36;;;;;;;12.43;5.85;;;;;;;;;;5093883;28;20024;-72
2022/04/07 07:45:02;;;;;;;16.05;6.35;;;;;;;;;;5094145;28;20057;-73
2022/04/07 07:47:28;;;;;;;13.90;6.38;;;;;;;;;;5093655;28;20024;-75
2022/04/07 07:49:54;;;;;;;10.63;4.47;;;;;;;;;;5094118;28;20069;-74
2022/04/07 07:52:19;;;;;;;10.48;4.43;;;;;;;;;;5093599;28;20388;-73
2022/04/07 07:54:45;;;;;;;9.10;4.50;;;;;;;;;;5093336;28;20496;-73
2022/04/07 07:57:10;;;;;;;8.15;4.20;;;;;;;;;;5093433;28;20103;-73
2022/04/07 07:59:36;;;;;;;10.52;4.00;;;;;;;;;;5093784;28;20082;-71
2022/04/07 08:02:01;;;;;;;13.35;3.92;;;;;;;;;;5093886;28;20065;-72
2022/04/07 08:04:27;;;;;;;8.55;4.25;;;;;;;;;;5093400;28;20123;-71
2022/04/07 08:06:52;;;;;;;9.40;4.10;;;;;;;;;;5093189;28;20146;-73
2022/04/07 08:09:17;;;;;;;9.48;4.32;;;;;;;;;;5093226;28;20028;-74
2022/04/07 08:11:43;;;;;;;11.25;3.65;;;;;;;;;;5093315;28;20107;-73
2022/04/07 08:14:09;;;;;;;13.25;3.65;;;;;;;;;;5093839;28;20482;-72
2022/04/07 08:16:38;;;;;;;7.53;3.25;;;;;;;;;;5093204;28;20494;-71
2022/04/07 08:19:04;;;;;;;5.30;2.90;;;;;;;;;;5093631;28;20193;-73
2022/04/07 08:21:30;;;;;;;7.05;3.20;;;;;;;;;;5093313;28;20438;-72
2022/04/07 08:23:56;;;;;;;11.32;3.13;;;;;;;;;;5092943;28;20473;-71
2022/04/07 08:26:21;;;;;;;13.82;3.00;;;;;;;;;;5093053;28;20028;-73
2022/04/07 08:28:47;;;;;;;8.35;2.42;;;;;;;;;;5093041;28;20110;-71
2022/04/07 08:31:12;;;;;;;5.45;2.17;;;;;;;;;;5092884;28;20032;-70
2022/04/07 08:33:38;;;;;;;5.18;2.35;;;;;;;;;;5093037;28;20397;-72
2022/04/07 08:36:03;;;;;;;5.03;2.00;;;;;;;;;;5092885;28;20028;-72
2022/04/07 08:38:29;;;;;;;8.55;2.10;;;;;;;;;;5092665;28;20027;-73
2022/04/07 08:40:55;;;;;;;4.28;1.52;;;;;;;;;;5092852;28;20028;-73
2022/04/07 08:43:21;;;;;;;5.15;1.70;;;;;;;;;;5092704;28;20094;-72
2022/04/07 08:45:48;;;;;;;4.28;1.73;;;;;;;;;;5091739;28;20024;-74
2022/04/07 08:48:15;;;;;;;4.28;1.80;;;;;;;;;;5092394;28;20132;-73
2022/04/07 08:50:44;;;;;;;4.90;1.73;;;;;;;;;;5092667;28;20031;-73
2022/04/07 08:53:12;;;;;;;4.35;1.58;;;;;;;;;;5092352;28;20028;-73
2022/04/07 08:55:38;;;;;;;7.65;1.90;;;;;;;;;;5092547;28;20103;-75
2022/04/07 08:58:04;;;;;;;4.18;1.50;;;;;;;;;;5092295;28;20552;-72
2022/04/07 09:00:30;;;;;;;4.07;1.30;;;;;;;;;;5092538;28;20543;-72
2022/04/07 09:02:55;;;;;;;7.10;2.50;;;;;;;;;;5092412;28;20056;-73
2022/04/07 09:05:26;;;;;;;7.00;2.55;;;;;;;;;;5092059;28;20082;-73
2022/04/07 09:07:56;;;;;;;8.07;2.90;;;;;;;;;;5091632;28;20369;-72
2022/04/07 09:10:25;;;;;;;9.00;3.55;;;;;;;;;;5092628;28;20065;-71
2022/04/07 09:12:51;;;;;;;9.95;2.85;;;;;;;;;;5092278;28;20039;-72
2022/04/07 09:15:17;;;;;;;6.20;2.90;;;;;;;;;;5092234;28;20031;-72
2022/04/07 09:17:53;;;;;;;7.88;3.13;;;;;;;;;;5091944;28;20415;-72
2022/04/07 09:20:19;;;;;;;10.57;3.83;;;;;;;;;;5092364;28;20107;-71
2022/04/07 09:22:44;;;;;;;6.38;3.20;;;;;;;;;;5091795;28;20476;-71
2022/04/07 09:25:12;;;;;;;8.98;3.00;;;;;;;;;;5091941;28;20024;-72
2022/04/07 09:27:41;;;;;;;6.88;3.10;;;;;;;;;;5091577;28;20020;-72
2022/04/07 09:30:08;;;;;;;4.00;1.80;;;;;;;;;;5091805;28;20020;-71
2022/04/07 09:32:44;;;;;;;1.90;0.57;;;;;;;;;;5091836;28;20073;-72
2022/04/07 09:35:11;;;;;;;2.10;0.60;;;;;;;;;;5091667;28;20086;-72
2022/04/07 09:37:38;;;;;;;0.50;0.45;;;;;;;;;;5091536;28;20092;-74
2022/04/07 09:40:06;;;;;;;0.82;0.38;;;;;;;;;;5091498;28;20048;-74
2022/04/07 09:42:33;;;;;;;0.98;0.40;;;;;;;;;;5091515;28;20028;-72
2022/04/07 09:45:01;;;;;;;3.72;0.40;;;;;;;;;;5092088;28;20028;-73
2022/04/07 09:47:44;;;;;;;0.73;0.50;;;;;;;;;;5091216;28;20024;-73
2022/04/07 09:50:29;;;;;;;1.08;0.40;;;;;;;;;;5091437;28;20028;-71
2022/04/07 09:52:55;;;;;;;0.40;0.20;;;;;;;;;;5091532;28;20024;-73
2022/04/07 09:55:25;;;;;;;0.88;0.30;;;;;;;;;;5091654;28;20069;-72
2022/04/07 09:57:52;;;;;;;1.80;0.50;;;;;;;;;;5090802;28;20028;-73
2022/04/07 10:00:18;;;;;;;3.92;0.35;;;;;;;;;;5091281;28;20293;-71
2022/04/07 10:02:44;;;;;;;3.45;0.30;;;;;;;;;;5091057;28;20035;-71
2022/04/07 10:05:09;;;;;;;0.63;0.30;;;;;;;;;;5091000;28;20052;-73
2022/04/07 10:07:35;;;;;;;1.02;0.40;;;;;;;;;;5090845;28;20028;-71
2022/04/07 10:10:02;;;;;;;1.00;0.20;;;;;;;;;;5091584;28;20052;-71
2022/04/07 10:12:27;;;;;;;0.60;0.30;;;;;;;;;;5091510;28;20020;-72
2022/04/07 10:14:54;;;;;;;2.20;0.40;;;;;;;;;;5090891;28;20040;-74
2022/04/07 10:17:20;;;;;;;0.50;0.35;;;;;;;;;;5090923;28;20035;-70
2022/04/07 10:19:54;;;;;;;1.05;0.60;;;;;;;;;;5090743;28;20514;-70
2022/04/07 10:22:49;;;;;;;0.80;0.50;;;;;;;;;;5090736;28;20012;-73
2022/04/07 10:25:17;;;;;;;2.92;0.40;;;;;;;;;;5090767;28;20038;-71
2022/04/07 10:27:45;;;;;;;1.08;0.50;;;;;;;;;;5090761;28;20388;-71
2022/04/07 10:30:13;;;;;;;2.42;0.45;;;;;;;;;;5090642;28;20026;-72
2022/04/07 10:32:49;;;;;;;1.70;0.70;;;;;;;;;;5090643;28;20062;-72
2022/04/07 10:35:29;;;;;;;1.10;0.60;;;;;;;;;;5090513;28;20027;-74
2022/04/07 10:37:55;;;;;;;;;;;;;;;;;;5090794;28;20533;-73
2022/04/07 10:40:49;;;;;;;0.82;0.57;;;;;;;;;;5090441;28;19912;-74
2022/04/07 10:43:14;;;;;;;0.80;0.30;;;;;;;;;;5090486;28;20028;-71
2022/04/07 10:45:45;;;;;;;0.73;0.40;;;;;;;;;;5090389;28;20031;-74
2022/04/07 10:48:30;;;;;;;0.93;0.40;;;;;;;;;;5090535;28;20035;-71
2022/04/07 10:51:00;;;;;;;0.47;0.38;;;;;;;;;;5090464;28;20032;-71
2022/04/07 10:53:26;;;;;;;;;;;;;;;;;;5090675;28;20035;-71
2022/04/07 10:56:07;;;;;;;0.60;0.30;;;;;;;;;;5090207;28;19908;-73
2022/04/07 10:58:49;;;;;;;2.95;0.43;;;;;;;;;;5090110;28;20063;-72
2022/04/07 11:01:26;;;;;;;0.93;0.43;;;;;;;;;;5090451;28;20034;-74
2022/04/07 11:04:22;;;;;;;0.35;0.25;;;;;;;;;;5090215;28;20048;-72
2022/04/07 11:07:10;;;;;;;0.82;0.50;;;;;;;;;;5090777;28;20046;-73
2022/04/07 11:09:58;;;;;;;3.67;0.40;;;;;;;;;;5089907;28;20020;-73
2022/04/07 11:12:29;;;;;;;0.80;0.30;;;;;;;;;;5090101;28;20019;-71
2022/04/07 11:15:01;;;;;;;1.23;0.28;;;;;;;;;;5089979;28;20048;-73
2022/04/07 11:17:41;;;;;;;1.17;0.40;;;;;;;;;;5090221;28;20058;-72
2022/04/07 11:20:26;;;;;;;2.63;0.20;;;;;;;;;;5090086;28;20047;-71
2022/04/07 11:23:13;;;;;;;0.50;0.40;;;;;;;;;;5089937;28;20046;-72
2022/04/07 11:25:43;;;;;;;1.33;0.50;;;;;;;;;;5090465;28;20039;-74
2022/04/07 11:28:13;;;;;;;1.40;0.70;;;;;;;;;;5089741;28;20107;-71
2022/04/07 11:31:04;;;;;;;1.42;0.43;;;;;;;;;;5089735;28;20115;-72
2022/04/07 11:33:36;;;;;;;1.63;0.47;;;;;;;;;;5089764;28;20028;-74
2022/04/07 11:36:02;;;;;;;1.63;0.47;;;;;;;;;;5089864;28;20028;-72
2022/04/07 11:38:42;;;;;;;3.15;0.43;;;;;;;;;;5089850;28;20330;-74
2022/04/07 11:41:10;;;;;;;4.07;0.60;;;;;;;;;;5090016;28;20085;-73
2022/04/07 11:43:41;;;;;;;1.75;0.70;;;;;;;;;;5089686;28;20089;-72
2022/04/07 11:46:07;;;;;;;6.45;0.88;;;;;;;;;;5089663;28;20112;-72
2022/04/07 11:48:35;;;;;;;2.70;0.50;;;;;;;;;;5089655;28;20556;-71
2022/04/07 11:51:08;;;;;;;4.40;0.55;;;;;;;;;;5088172;28;20052;-72
2022/04/07 11:53:33;;;;;;;1.77;0.35;;;;;;;;;;5089457;28;20055;-72
2022/04/07 11:56:19;;;;;;;8.38;0.47;;;;;;;;;;5089566;28;20048;-71
2022/04/07 11:58:59;;;;;;;3.60;0.50;;;;;;;;;;5089587;28;20030;-73
2022/04/07 12:01:25;;;;;;;4.95;0.50;;;;;;;;;;5089648;28;20047;-73
2022/04/07 12:03:57;;;;;;;0.95;0.40;;;;;;;;;;5087881;28;20083;-72
2022/04/07 12:06:31;;;;;;;3.35;0.40;;;;;;;;;;5089303;28;20025;-72
2022/04/07 12:08:57;;;;;;;1.30;0.50;;;;;;;;;;5089072;28;20052;-72
2022/04/07 12:11:27;;;;;;;1.70;0.40;;;;;;;;;;5089551;28;20548;-72
2022/04/07 12:13:55;;;;;;;2.97;0.47;;;;;;;;;;5089777;28;20544;-72
2022/04/07 12:16:24;;;;;;;6.93;0.40;;;;;;;;;;5089380;28;20499;-71
2022/04/07 12:18:57;;;;;;;1.40;0.40;;;;;;;;;;5089161;28;20020;-71
2022/04/07 12:21:25;;;;;;;2.05;0.50;;;;;;;;;;5092408;28;20040;-72
2022/04/07 12:24:13;;;;;;;4.60;0.60;;;;;;;;;;5092827;28;20028;-74
2022/04/07 12:26:47;;;;;;;2.15;0.50;;;;;;;;;;5092893;28;20032;-72
2022/04/07 12:29:14;;;;;;;1.77;0.30;;;;;;;;;;5092890;28;20024;-71
2022/04/07 12:31:39;;;;;;;2.03;0.30;;;;;;;;;;5093074;28;20047;-73
2022/04/07 12:34:12;;;;;;;2.17;0.40;;;;;;;;;;5093010;28;20104;-72
2022/04/07 12:36:39;;;;;;;1.05;0.30;;;;;;;;;;5092958;28;20047;-73
2022/04/07 12:39:08;;;;;;;1.25;0.60;;;;;;;;;;5092547;28;20016;-72
2022/04/07 12:41:46;;;;;;;1.58;0.30;;;;;;;;;;5092729;28;20394;-72
2022/04/07 12:44:17;;;;;;;0.75;0.47;;;;;;;;;;5092528;28;20028;-73
2022/04/07 12:46:47;;;;;;;3.05;0.65;;;;;;;;;;5092740;28;20031;-70
2022/04/07 12:49:14;;;;;;;4.90;0.47;;;;;;;;;;5092441;28;20016;-73
2022/04/07 12:51:41;;;;;;;1.95;0.43;;;;;;;;;;5092735;28;20111;-72
2022/04/07 12:54:15;;;;;;;0.60;0.30;;;;;;;;;;5092568;28;20073;-73
2022/04/07 12:56:42;;;;;;;2.47;0.50;;;;;;;;;;5092547;28;20509;-71
2022/04/07 12:59:14;;;;;;;1.27;0.30;;;;;;;;;;5092269;28;20077;-71
2022/04/07 13:01:45;;;;;;;0.60;0.35;;;;;;;;;;5092413;28;20035;-71
2022/04/07 13:04:11;;;;;;;2.00;0.47;;;;;;;;;;5092300;28;20561;-71
2022/04/07 13:06:37;;;;;;;2.95;0.52;;;;;;;;;;5092384;28;20039;-73
2022/04/07 13:09:05;;;;;;;1.98;0.47;;;;;;;;;;5092053;28;20491;-74
2022/04/07 13:11:43;;;;;;;2.90;0.45;;;;;;;;;;5092183;28;20028;-73
2022/04/07 13:14:10;;;;;;;1.75;0.43;;;;;;;;;;5092584;28;20028;-70
2022/04/07 13:16:37;;;;;;;1.33;0.30;;;;;;;;;;5092299;28;20388;-72
2022/04/07 13:19:03;;;;;;;0.60;0.30;;;;;;;;;;5091932;28;20030;-70
2022/04/07 13:21:29;;;;;;;1.83;0.40;;;;;;;;;;5091840;28;20116;-71
2022/04/07 13:23:55;;;;;;;3.70;0.60;;;;;;;;;;5091847;28;20099;-73
2022/04/07 13:26:21;;;;;;;3.30;0.30;;;;;;;;;;5092022;28;20082;-71
2022/04/07 13:28:51;;;;;;;1.90;0.20;;;;;;;;;;5091865;28;20024;-74
2022/04/07 13:31:18;;;;;;;0.85;0.30;;;;;;;;;;5091404;28;20330;-69
2022/04/07 13:33:45;;;;;;;0.80;0.40;;;;;;;;;;5091851;28;20028;-74
2022/04/07 13:36:11;;;;;;;3.10;0.50;;;;;;;;;;5092115;28;20020;-73
2022/04/07 13:38:37;;;;;;;0.90;0.30;;;;;;;;;;5091408;28;20023;-71
2022/04/07 13:41:04;;;;;;;1.05;0.30;;;;;;;;;;5091714;28;20042;-71
2022/04/07 13:43:32;;;;;;;2.17;0.30;;;;;;;;;;5092130;28;20074;-74
2022/04/07 13:45:58;;;;;;;1.65;0.32;;;;;;;;;;5092175;28;20028;-71
2022/04/07 13:48:24;;;;;;;5.13;0.60;;;;;;;;;;5091458;28;20028;-73
2022/04/07 13:50:50;;;;;;;3.40;0.30;;;;;;;;;;5091927;28;20060;-70
2022/04/07 13:53:19;;;;;;;3.72;0.40;;;;;;;;;;5091516;28;20028;-71
2022/04/07 13:55:45;;;;;;;4.70;0.52;;;;;;;;;;5091530;28;20108;-70
2022/04/07 13:58:11;;;;;;;3.30;0.50;;;;;;;;;;5091446;28;20103;-71
2022/04/07 14:00:41;;;;;;;1.20;0.40;;;;;;;;;;5091956;28;20031;-72
2022/04/07 14:03:07;;;;;;;2.55;0.50;;;;;;;;;;5091681;28;20024;-71
2022/04/07 14:05:33;;;;;;;2.35;0.60;;;;;;;;;;5091642;28;20492;-70
2022/04/07 14:08:00;;;;;;;1.80;0.65;;;;;;;;;;5091005;28;20396;-73
2022/04/07 14:10:26;;;;;;;2.30;0.50;;;;;;;;;;5091120;28;20024;-71
2022/04/07 14:12:53;;;;;;;4.35;0.60;;;;;;;;;;5091049;28;20035;-72
2022/04/07 14:15:18;;;;;;;4.22;0.75;;;;;;;;;;5091061;28;20151;-74
2022/04/07 14:17:45;;;;;;;2.40;0.70;;;;;;;;;;5090786;28;20105;-72
2022/04/07 14:20:12;;;;;;;1.00;0.50;;;;;;;;;;5090718;28;20496;-73
2022/04/07 14:22:38;;;;;;;6.53;1.05;;;;;;;;;;5090843;28;20096;-72
2022/04/07 14:25:04;;;;;;;3.13;0.60;;;;;;;;;;5090789;28;20024;-72
2022/04/07 14:27:29;;;;;;;2.70;0.70;;;;;;;;;;5090911;28;20051;-71
2022/04/07 14:29:55;;;;;;;2.83;0.63;;;;;;;;;;5090398;28;20048;-72
2022/04/07 14:32:20;;;;;;;1.38;0.60;;;;;;;;;;5090731;28;20020;-71
2022/04/07 14:34:46;;;;;;;4.82;0.60;;;;;;;;;;5090428;28;20479;-71
2022/04/07 14:37:11;;;;;;;2.03;0.57;;;;;;;;;;5090641;28;20024;-71
2022/04/07 14:39:37;;;;;;;2.17;0.70;;;;;;;;;;5090304;28;20389;-72
2022/04/07 14:42:03;;;;;;;1.15;0.50;;;;;;;;;;5090530;28;20020;-71
2022/04/07 14:44:28;;;;;;;5.55;0.65;;;;;;;;;;5089429;28;20019;-70